sensor_id;sensor_type;location;lat;lon;timestamp;P1;durP1;ratioP1;P2;durP2;ratioP2
67995;SDS011;54772;53.544;49.324;2023-07-30T00:00:02;4.65;;;3.10;;
67995;SDS011;54772;53.544;49.324;2023-07-30T00:02:56;6.07;;;3.50;;
67995;SDS011;54772;53.544;49.324;2023-07-30T00:05:43;4.25;;;3.05;;
67995;SDS011;54772;53.544;49.324;2023-07-30T00:08:37;3.67;;;2.83;;
67995;SDS011;54772;53.544;49.324;2023-07-30T00:11:24;5.20;;;3.53;;
67995;SDS011;54772;53.544;49.324;2023-07-30T00:14:11;6.05;;;3.10;;
67995;SDS011;54772;53.544;49.324;2023-07-30T00:16:58;4.72;;;2.97;;
67995;SDS011;54772;53.544;49.324;2023-07-30T00:19:44;4.50;;;3.20;;
67995;SDS011;54772;53.544;49.324;2023-07-30T00:22:31;4.62;;;3.00;;
67995;SDS011;54772;53.544;49.324;2023-07-30T00:28:04;6.10;;;3.37;;
67995;SDS011;54772;53.544;49.324;2023-07-30T00:30:50;5.47;;;3.10;;
67995;SDS011;54772;53.544;49.324;2023-07-30T00:33:37;6.30;;;3.30;;
67995;SDS011;54772;53.544;49.324;2023-07-30T00:36:23;3.90;;;3.10;;
67995;SDS011;54772;53.544;49.324;2023-07-30T00:39:10;5.07;;;3.47;;
67995;SDS011;54772;53.544;49.324;2023-07-30T00:41:56;5.82;;;2.80;;
67995;SDS011;54772;53.544;49.324;2023-07-30T00:44:44;5.87;;;4.00;;
67995;SDS011;54772;53.544;49.324;2023-07-30T00:50:17;7.78;;;3.42;;
67995;SDS011;54772;53.544;49.324;2023-07-30T00:53:04;4.75;;;3.20;;
67995;SDS011;54772;53.544;49.324;2023-07-30T00:55:51;4.57;;;2.90;;
67995;SDS011;54772;53.544;49.324;2023-07-30T01:01:26;6.53;;;3.25;;
67995;SDS011;54772;53.544;49.324;2023-07-30T01:04:13;4.32;;;3.03;;
67995;SDS011;54772;53.544;49.324;2023-07-30T01:07:00;6.85;;;3.08;;
67995;SDS011;54772;53.544;49.324;2023-07-30T01:09:47;3.87;;;2.75;;
67995;SDS011;54772;53.544;49.324;2023-07-30T01:12:34;10.10;;;3.47;;
67995;SDS011;54772;53.544;49.324;2023-07-30T01:15:22;5.43;;;3.05;;
67995;SDS011;54772;53.544;49.324;2023-07-30T01:18:08;5.20;;;3.22;;
67995;SDS011;54772;53.544;49.324;2023-07-30T01:20:58;4.50;;;3.20;;
67995;SDS011;54772;53.544;49.324;2023-07-30T01:23:46;5.50;;;3.30;;
67995;SDS011;54772;53.544;49.324;2023-07-30T01:26:34;5.55;;;3.12;;
67995;SDS011;54772;53.544;49.324;2023-07-30T01:32:20;5.60;;;3.22;;
67995;SDS011;54772;53.544;49.324;2023-07-30T01:35:11;5.87;;;3.30;;
67995;SDS011;54772;53.544;49.324;2023-07-30T01:37:59;5.72;;;3.30;;
67995;SDS011;54772;53.544;49.324;2023-07-30T01:40:48;4.40;;;2.87;;
67995;SDS011;54772;53.544;49.324;2023-07-30T01:43:35;9.43;;;3.40;;
67995;SDS011;54772;53.544;49.324;2023-07-30T01:46:22;5.18;;;3.10;;
67995;SDS011;54772;53.544;49.324;2023-07-30T01:49:08;8.10;;;3.40;;
67995;SDS011;54772;53.544;49.324;2023-07-30T01:51:55;6.65;;;3.12;;
67995;SDS011;54772;53.544;49.324;2023-07-30T01:54:42;6.10;;;3.10;;
67995;SDS011;54772;53.544;49.324;2023-07-30T01:57:30;6.62;;;3.00;;
67995;SDS011;54772;53.544;49.324;2023-07-30T02:00:17;6.47;;;3.30;;
67995;SDS011;54772;53.544;49.324;2023-07-30T02:03:03;5.82;;;3.22;;
67995;SDS011;54772;53.544;49.324;2023-07-30T02:05:50;6.30;;;3.28;;
67995;SDS011;54772;53.544;49.324;2023-07-30T02:08:37;7.43;;;3.53;;
67995;SDS011;54772;53.544;49.324;2023-07-30T02:11:24;8.98;;;3.97;;
67995;SDS011;54772;53.544;49.324;2023-07-30T02:14:10;5.25;;;3.10;;
67995;SDS011;54772;53.544;49.324;2023-07-30T02:16:57;7.22;;;3.20;;
67995;SDS011;54772;53.544;49.324;2023-07-30T02:19:44;5.20;;;3.55;;
67995;SDS011;54772;53.544;49.324;2023-07-30T02:25:17;4.87;;;3.17;;
67995;SDS011;54772;53.544;49.324;2023-07-30T02:28:04;5.25;;;3.10;;
67995;SDS011;54772;53.544;49.324;2023-07-30T02:30:51;6.57;;;3.03;;
67995;SDS011;54772;53.544;49.324;2023-07-30T02:33:37;5.28;;;3.17;;
67995;SDS011;54772;53.544;49.324;2023-07-30T02:36:24;6.30;;;2.80;;
67995;SDS011;54772;53.544;49.324;2023-07-30T02:41:57;5.35;;;2.87;;
67995;SDS011;54772;53.544;49.324;2023-07-30T02:47:30;4.47;;;2.65;;
67995;SDS011;54772;53.544;49.324;2023-07-30T02:50:16;4.90;;;2.62;;
67995;SDS011;54772;53.544;49.324;2023-07-30T02:53:04;6.50;;;2.90;;
67995;SDS011;54772;53.544;49.324;2023-07-30T02:55:50;3.90;;;2.80;;
67995;SDS011;54772;53.544;49.324;2023-07-30T02:58:38;4.32;;;2.60;;
67995;SDS011;54772;53.544;49.324;2023-07-30T03:01:24;4.95;;;3.10;;
67995;SDS011;54772;53.544;49.324;2023-07-30T03:04:11;6.40;;;3.20;;
67995;SDS011;54772;53.544;49.324;2023-07-30T03:09:44;6.67;;;2.83;;
67995;SDS011;54772;53.544;49.324;2023-07-30T03:15:18;4.32;;;2.97;;
67995;SDS011;54772;53.544;49.324;2023-07-30T03:18:04;4.85;;;2.70;;
67995;SDS011;54772;53.544;49.324;2023-07-30T03:23:43;8.30;;;2.70;;
67995;SDS011;54772;53.544;49.324;2023-07-30T03:26:29;4.30;;;2.47;;
67995;SDS011;54772;53.544;49.324;2023-07-30T03:29:16;4.47;;;2.55;;
67995;SDS011;54772;53.544;49.324;2023-07-30T03:34:49;3.90;;;2.58;;
67995;SDS011;54772;53.544;49.324;2023-07-30T03:37:36;3.42;;;2.53;;
67995;SDS011;54772;53.544;49.324;2023-07-30T03:40:23;4.80;;;2.90;;
67995;SDS011;54772;53.544;49.324;2023-07-30T03:43:11;4.07;;;2.65;;
67995;SDS011;54772;53.544;49.324;2023-07-30T03:45:57;3.83;;;2.62;;
67995;SDS011;54772;53.544;49.324;2023-07-30T03:48:44;6.68;;;2.70;;
67995;SDS011;54772;53.544;49.324;2023-07-30T03:51:31;6.55;;;2.70;;
67995;SDS011;54772;53.544;49.324;2023-07-30T03:54:18;3.95;;;2.72;;
67995;SDS011;54772;53.544;49.324;2023-07-30T03:57:04;4.47;;;2.78;;
67995;SDS011;54772;53.544;49.324;2023-07-30T03:59:51;5.07;;;2.85;;
67995;SDS011;54772;53.544;49.324;2023-07-30T04:02:38;3.75;;;2.35;;
67995;SDS011;54772;53.544;49.324;2023-07-30T04:05:25;5.03;;;2.80;;
67995;SDS011;54772;53.544;49.324;2023-07-30T04:08:11;3.28;;;2.40;;
67995;SDS011;54772;53.544;49.324;2023-07-30T04:10:58;5.07;;;2.90;;
67995;SDS011;54772;53.544;49.324;2023-07-30T04:13:45;4.03;;;2.58;;
67995;SDS011;54772;53.544;49.324;2023-07-30T04:16:32;3.25;;;2.67;;
67995;SDS011;54772;53.544;49.324;2023-07-30T04:19:18;5.65;;;2.83;;
67995;SDS011;54772;53.544;49.324;2023-07-30T04:22:06;6.03;;;2.95;;
67995;SDS011;54772;53.544;49.324;2023-07-30T04:27:38;3.20;;;2.55;;
67995;SDS011;54772;53.544;49.324;2023-07-30T04:36:02;3.53;;;2.65;;
67995;SDS011;54772;53.544;49.324;2023-07-30T04:38:49;3.35;;;2.67;;
67995;SDS011;54772;53.544;49.324;2023-07-30T04:41:36;4.43;;;3.03;;
67995;SDS011;54772;53.544;49.324;2023-07-30T04:44:23;3.22;;;2.60;;
67995;SDS011;54772;53.544;49.324;2023-07-30T04:47:10;3.53;;;2.60;;
67995;SDS011;54772;53.544;49.324;2023-07-30T04:49:57;3.33;;;2.75;;
67995;SDS011;54772;53.544;49.324;2023-07-30T04:52:43;4.20;;;2.70;;
67995;SDS011;54772;53.544;49.324;2023-07-30T04:55:30;4.03;;;2.85;;
67995;SDS011;54772;53.544;49.324;2023-07-30T04:58:17;4.43;;;3.03;;
67995;SDS011;54772;53.544;49.324;2023-07-30T05:01:03;3.33;;;2.78;;
67995;SDS011;54772;53.544;49.324;2023-07-30T05:06:36;4.50;;;2.87;;
67995;SDS011;54772;53.544;49.324;2023-07-30T05:12:09;5.00;;;2.73;;
67995;SDS011;54772;53.544;49.324;2023-07-30T05:14:55;4.22;;;2.95;;
67995;SDS011;54772;53.544;49.324;2023-07-30T05:17:42;5.87;;;3.65;;
67995;SDS011;54772;53.544;49.324;2023-07-30T05:20:29;4.37;;;2.78;;
67995;SDS011;54772;53.544;49.324;2023-07-30T05:23:16;4.37;;;2.80;;
67995;SDS011;54772;53.544;49.324;2023-07-30T05:28:48;4.67;;;2.80;;
67995;SDS011;54772;53.544;49.324;2023-07-30T05:31:35;5.15;;;2.70;;
67995;SDS011;54772;53.544;49.324;2023-07-30T05:34:22;3.90;;;2.70;;
67995;SDS011;54772;53.544;49.324;2023-07-30T05:37:08;3.45;;;2.78;;
67995;SDS011;54772;53.544;49.324;2023-07-30T05:39:55;4.50;;;3.00;;
67995;SDS011;54772;53.544;49.324;2023-07-30T05:45:28;4.60;;;3.03;;
67995;SDS011;54772;53.544;49.324;2023-07-30T05:48:14;4.37;;;3.10;;
67995;SDS011;54772;53.544;49.324;2023-07-30T05:51:01;3.92;;;3.20;;
67995;SDS011;54772;53.544;49.324;2023-07-30T05:53:47;4.62;;;3.12;;
67995;SDS011;54772;53.544;49.324;2023-07-30T05:56:34;3.62;;;2.55;;
67995;SDS011;54772;53.544;49.324;2023-07-30T05:59:20;3.80;;;2.72;;
67995;SDS011;54772;53.544;49.324;2023-07-30T06:02:07;5.55;;;3.15;;
67995;SDS011;54772;53.544;49.324;2023-07-30T06:04:54;6.97;;;2.97;;
67995;SDS011;54772;53.544;49.324;2023-07-30T06:10:27;4.28;;;3.08;;
67995;SDS011;54772;53.544;49.324;2023-07-30T06:13:13;4.35;;;3.00;;
67995;SDS011;54772;53.544;49.324;2023-07-30T06:16:00;4.87;;;3.20;;
67995;SDS011;54772;53.544;49.324;2023-07-30T06:18:47;5.15;;;3.42;;
67995;SDS011;54772;53.544;49.324;2023-07-30T06:21:36;3.67;;;2.97;;
67995;SDS011;54772;53.544;49.324;2023-07-30T06:24:22;4.30;;;3.20;;
67995;SDS011;54772;53.544;49.324;2023-07-30T06:27:09;5.45;;;3.47;;
67995;SDS011;54772;53.544;49.324;2023-07-30T06:29:57;4.78;;;3.22;;
67995;SDS011;54772;53.544;49.324;2023-07-30T06:32:43;5.25;;;3.00;;
67995;SDS011;54772;53.544;49.324;2023-07-30T06:38:16;4.57;;;3.00;;
67995;SDS011;54772;53.544;49.324;2023-07-30T06:41:03;4.50;;;3.35;;
67995;SDS011;54772;53.544;49.324;2023-07-30T06:44:03;4.28;;;3.35;;
67995;SDS011;54772;53.544;49.324;2023-07-30T06:46:49;4.60;;;3.08;;
67995;SDS011;54772;53.544;49.324;2023-07-30T06:49:36;4.45;;;3.37;;
67995;SDS011;54772;53.544;49.324;2023-07-30T06:52:22;4.28;;;2.85;;
67995;SDS011;54772;53.544;49.324;2023-07-30T06:55:09;4.50;;;3.12;;
67995;SDS011;54772;53.544;49.324;2023-07-30T06:57:56;4.90;;;3.25;;
67995;SDS011;54772;53.544;49.324;2023-07-30T07:00:42;4.40;;;3.08;;
67995;SDS011;54772;53.544;49.324;2023-07-30T07:03:28;4.87;;;3.25;;
67995;SDS011;54772;53.544;49.324;2023-07-30T07:06:15;4.22;;;3.15;;
67995;SDS011;54772;53.544;49.324;2023-07-30T07:11:48;5.50;;;3.77;;
67995;SDS011;54772;53.544;49.324;2023-07-30T07:14:35;5.28;;;3.65;;
67995;SDS011;54772;53.544;49.324;2023-07-30T07:17:21;6.12;;;3.40;;
67995;SDS011;54772;53.544;49.324;2023-07-30T07:20:07;4.28;;;2.95;;
67995;SDS011;54772;53.544;49.324;2023-07-30T07:22:56;5.55;;;3.78;;
67995;SDS011;54772;53.544;49.324;2023-07-30T07:28:29;5.37;;;3.65;;
67995;SDS011;54772;53.544;49.324;2023-07-30T07:31:16;4.80;;;3.62;;
67995;SDS011;54772;53.544;49.324;2023-07-30T07:34:02;5.18;;;3.50;;
67995;SDS011;54772;53.544;49.324;2023-07-30T07:36:49;5.37;;;3.03;;
67995;SDS011;54772;53.544;49.324;2023-07-30T07:39:36;4.53;;;3.15;;
67995;SDS011;54772;53.544;49.324;2023-07-30T07:45:09;4.50;;;3.22;;
67995;SDS011;54772;53.544;49.324;2023-07-30T07:50:42;5.62;;;3.12;;
67995;SDS011;54772;53.544;49.324;2023-07-30T07:53:29;4.40;;;3.10;;
67995;SDS011;54772;53.544;49.324;2023-07-30T07:56:16;5.80;;;3.40;;
67995;SDS011;54772;53.544;49.324;2023-07-30T08:01:49;5.80;;;3.43;;
67995;SDS011;54772;53.544;49.324;2023-07-30T08:04:36;5.15;;;3.30;;
67995;SDS011;54772;53.544;49.324;2023-07-30T08:07:22;6.55;;;3.45;;
67995;SDS011;54772;53.544;49.324;2023-07-30T08:10:09;6.03;;;3.08;;
67995;SDS011;54772;53.544;49.324;2023-07-30T08:12:55;5.62;;;3.33;;
67995;SDS011;54772;53.544;49.324;2023-07-30T08:15:42;5.37;;;3.10;;
67995;SDS011;54772;53.544;49.324;2023-07-30T08:18:29;4.85;;;3.40;;
67995;SDS011;54772;53.544;49.324;2023-07-30T08:21:16;4.60;;;3.12;;
67995;SDS011;54772;53.544;49.324;2023-07-30T08:24:05;4.32;;;3.20;;
67995;SDS011;54772;53.544;49.324;2023-07-30T08:26:51;4.78;;;3.47;;
67995;SDS011;54772;53.544;49.324;2023-07-30T08:29:37;4.10;;;3.08;;
67995;SDS011;54772;53.544;49.324;2023-07-30T08:32:24;5.55;;;3.45;;
67995;SDS011;54772;53.544;49.324;2023-07-30T08:35:11;4.53;;;3.00;;
67995;SDS011;54772;53.544;49.324;2023-07-30T08:37:57;4.12;;;2.90;;
67995;SDS011;54772;53.544;49.324;2023-07-30T08:40:44;4.07;;;2.85;;
67995;SDS011;54772;53.544;49.324;2023-07-30T08:43:31;4.78;;;3.30;;
67995;SDS011;54772;53.544;49.324;2023-07-30T08:46:17;5.45;;;3.20;;
67995;SDS011;54772;53.544;49.324;2023-07-30T08:49:04;6.03;;;3.90;;
67995;SDS011;54772;53.544;49.324;2023-07-30T08:54:38;4.22;;;3.20;;
67995;SDS011;54772;53.544;49.324;2023-07-30T08:57:25;4.70;;;3.12;;
67995;SDS011;54772;53.544;49.324;2023-07-30T09:00:14;5.45;;;3.10;;
67995;SDS011;54772;53.544;49.324;2023-07-30T09:03:02;6.47;;;3.33;;
67995;SDS011;54772;53.544;49.324;2023-07-30T09:05:50;3.97;;;2.90;;
67995;SDS011;54772;53.544;49.324;2023-07-30T09:08:37;4.20;;;3.10;;
67995;SDS011;54772;53.544;49.324;2023-07-30T09:11:27;5.15;;;3.42;;
67995;SDS011;54772;53.544;49.324;2023-07-30T09:14:13;3.78;;;3.15;;
67995;SDS011;54772;53.544;49.324;2023-07-30T09:17:00;3.65;;;3.03;;
67995;SDS011;54772;53.544;49.324;2023-07-30T09:19:46;4.25;;;3.05;;
67995;SDS011;54772;53.544;49.324;2023-07-30T09:22:35;5.03;;;2.90;;
67995;SDS011;54772;53.544;49.324;2023-07-30T09:25:24;4.72;;;3.30;;
67995;SDS011;54772;53.544;49.324;2023-07-30T09:28:11;4.05;;;3.12;;
67995;SDS011;54772;53.544;49.324;2023-07-30T09:31:06;4.60;;;3.30;;
67995;SDS011;54772;53.544;49.324;2023-07-30T09:33:53;5.32;;;3.30;;
67995;SDS011;54772;53.544;49.324;2023-07-30T09:36:42;5.10;;;3.65;;
67995;SDS011;54772;53.544;49.324;2023-07-30T09:39:29;4.87;;;3.60;;
67995;SDS011;54772;53.544;49.324;2023-07-30T09:45:02;7.37;;;3.60;;
67995;SDS011;54772;53.544;49.324;2023-07-30T09:47:50;4.12;;;3.20;;
67995;SDS011;54772;53.544;49.324;2023-07-30T09:50:37;4.80;;;3.55;;
67995;SDS011;54772;53.544;49.324;2023-07-30T09:53:24;5.20;;;3.55;;
67995;SDS011;54772;53.544;49.324;2023-07-30T09:56:12;4.20;;;3.20;;
67995;SDS011;54772;53.544;49.324;2023-07-30T09:58:59;5.70;;;3.83;;
67995;SDS011;54772;53.544;49.324;2023-07-30T10:01:46;4.93;;;3.30;;
67995;SDS011;54772;53.544;49.324;2023-07-30T10:04:35;5.62;;;3.53;;
67995;SDS011;54772;53.544;49.324;2023-07-30T10:07:27;4.30;;;3.20;;
67995;SDS011;54772;53.544;49.324;2023-07-30T10:10:14;6.07;;;4.10;;
67995;SDS011;54772;53.544;49.324;2023-07-30T10:13:03;3.83;;;2.95;;
67995;SDS011;54772;53.544;49.324;2023-07-30T10:15:52;5.25;;;3.62;;
67995;SDS011;54772;53.544;49.324;2023-07-30T10:21:26;4.47;;;3.10;;
67995;SDS011;54772;53.544;49.324;2023-07-30T10:24:14;4.00;;;3.08;;
67995;SDS011;54772;53.544;49.324;2023-07-30T10:27:05;4.80;;;3.50;;
67995;SDS011;54772;53.544;49.324;2023-07-30T10:33:02;4.85;;;3.50;;
67995;SDS011;54772;53.544;49.324;2023-07-30T10:35:52;4.07;;;3.30;;
67995;SDS011;54772;53.544;49.324;2023-07-30T10:38:41;4.95;;;3.10;;
67995;SDS011;54772;53.544;49.324;2023-07-30T10:41:28;4.95;;;3.35;;
67995;SDS011;54772;53.544;49.324;2023-07-30T10:44:22;4.78;;;3.60;;
67995;SDS011;54772;53.544;49.324;2023-07-30T10:47:18;4.18;;;3.35;;
67995;SDS011;54772;53.544;49.324;2023-07-30T10:50:05;5.18;;;3.50;;
67995;SDS011;54772;53.544;49.324;2023-07-30T10:52:51;4.93;;;3.17;;
67995;SDS011;54772;53.544;49.324;2023-07-30T10:55:38;4.62;;;3.10;;
67995;SDS011;54772;53.544;49.324;2023-07-30T10:58:25;5.68;;;3.72;;
67995;SDS011;54772;53.544;49.324;2023-07-30T11:01:12;5.62;;;3.40;;
67995;SDS011;54772;53.544;49.324;2023-07-30T11:03:59;5.68;;;3.55;;
67995;SDS011;54772;53.544;49.324;2023-07-30T11:06:45;6.53;;;4.57;;
67995;SDS011;54772;53.544;49.324;2023-07-30T11:09:33;7.03;;;3.80;;
67995;SDS011;54772;53.544;49.324;2023-07-30T11:12:20;5.53;;;3.78;;
67995;SDS011;54772;53.544;49.324;2023-07-30T11:15:08;5.47;;;3.70;;
67995;SDS011;54772;53.544;49.324;2023-07-30T11:17:55;4.78;;;3.35;;
67995;SDS011;54772;53.544;49.324;2023-07-30T11:20:42;6.70;;;3.67;;
67995;SDS011;54772;53.544;49.324;2023-07-30T11:23:29;5.22;;;3.42;;
67995;SDS011;54772;53.544;49.324;2023-07-30T11:29:19;5.50;;;3.62;;
67995;SDS011;54772;53.544;49.324;2023-07-30T11:32:06;4.93;;;3.80;;
67995;SDS011;54772;53.544;49.324;2023-07-30T11:34:53;4.75;;;3.75;;
67995;SDS011;54772;53.544;49.324;2023-07-30T11:37:40;5.40;;;3.70;;
67995;SDS011;54772;53.544;49.324;2023-07-30T11:40:31;4.55;;;3.20;;
67995;SDS011;54772;53.544;49.324;2023-07-30T11:43:17;5.93;;;3.10;;
67995;SDS011;54772;53.544;49.324;2023-07-30T11:46:10;5.97;;;3.83;;
67995;SDS011;54772;53.544;49.324;2023-07-30T11:49:13;5.45;;;3.55;;
67995;SDS011;54772;53.544;49.324;2023-07-30T11:52:08;4.95;;;3.45;;
67995;SDS011;54772;53.544;49.324;2023-07-30T11:55:04;4.72;;;3.20;;
67995;SDS011;54772;53.544;49.324;2023-07-30T11:57:51;4.55;;;3.47;;
67995;SDS011;54772;53.544;49.324;2023-07-30T12:00:38;3.78;;;3.33;;
67995;SDS011;54772;53.544;49.324;2023-07-30T12:03:25;5.05;;;3.40;;
67995;SDS011;54772;53.544;49.324;2023-07-30T12:06:12;4.30;;;3.17;;
67995;SDS011;54772;53.544;49.324;2023-07-30T12:08:59;4.30;;;3.10;;
67995;SDS011;54772;53.544;49.324;2023-07-30T12:11:49;5.50;;;3.17;;
67995;SDS011;54772;53.544;49.324;2023-07-30T12:17:32;3.60;;;3.03;;
67995;SDS011;54772;53.544;49.324;2023-07-30T12:20:19;4.05;;;3.00;;
67995;SDS011;54772;53.544;49.324;2023-07-30T12:25:52;3.70;;;2.80;;
67995;SDS011;54772;53.544;49.324;2023-07-30T12:31:25;4.43;;;2.97;;
67995;SDS011;54772;53.544;49.324;2023-07-30T12:34:12;2.92;;;2.42;;
67995;SDS011;54772;53.544;49.324;2023-07-30T12:36:58;3.15;;;2.53;;
67995;SDS011;54772;53.544;49.324;2023-07-30T12:39:45;3.60;;;2.40;;
67995;SDS011;54772;53.544;49.324;2023-07-30T12:42:32;3.10;;;2.62;;
67995;SDS011;54772;53.544;49.324;2023-07-30T12:45:18;3.37;;;2.72;;
67995;SDS011;54772;53.544;49.324;2023-07-30T12:48:05;3.42;;;2.78;;
67995;SDS011;54772;53.544;49.324;2023-07-30T12:50:52;3.62;;;3.00;;
67995;SDS011;54772;53.544;49.324;2023-07-30T12:53:39;3.78;;;3.10;;
67995;SDS011;54772;53.544;49.324;2023-07-30T12:56:26;4.10;;;2.35;;
67995;SDS011;54772;53.544;49.324;2023-07-30T12:59:12;3.92;;;2.72;;
67995;SDS011;54772;53.544;49.324;2023-07-30T13:04:45;3.40;;;2.40;;
67995;SDS011;54772;53.544;49.324;2023-07-30T13:10:18;2.65;;;2.30;;
67995;SDS011;54772;53.544;49.324;2023-07-30T13:13:04;4.43;;;2.35;;
67995;SDS011;54772;53.544;49.324;2023-07-30T13:15:51;3.25;;;2.35;;
67995;SDS011;54772;53.544;49.324;2023-07-30T13:18:42;3.45;;;2.70;;
67995;SDS011;54772;53.544;49.324;2023-07-30T13:21:31;3.33;;;2.60;;
67995;SDS011;54772;53.544;49.324;2023-07-30T13:24:34;3.85;;;3.00;;
67995;SDS011;54772;53.544;49.324;2023-07-30T13:27:21;4.90;;;3.00;;
67995;SDS011;54772;53.544;49.324;2023-07-30T13:30:08;4.37;;;2.72;;
67995;SDS011;54772;53.544;49.324;2023-07-30T13:32:55;4.90;;;2.87;;
67995;SDS011;54772;53.544;49.324;2023-07-30T13:38:28;4.03;;;3.00;;
67995;SDS011;54772;53.544;49.324;2023-07-30T13:41:14;3.67;;;2.53;;
67995;SDS011;54772;53.544;49.324;2023-07-30T13:44:01;3.78;;;2.83;;
67995;SDS011;54772;53.544;49.324;2023-07-30T13:46:48;4.60;;;2.50;;
67995;SDS011;54772;53.544;49.324;2023-07-30T13:49:35;2.55;;;2.35;;
67995;SDS011;54772;53.544;49.324;2023-07-30T13:52:22;2.37;;;2.17;;
67995;SDS011;54772;53.544;49.324;2023-07-30T13:55:09;2.22;;;1.95;;
67995;SDS011;54772;53.544;49.324;2023-07-30T13:57:55;2.50;;;2.10;;
67995;SDS011;54772;53.544;49.324;2023-07-30T14:00:42;2.12;;;1.92;;
67995;SDS011;54772;53.544;49.324;2023-07-30T14:03:28;4.82;;;2.10;;
67995;SDS011;54772;53.544;49.324;2023-07-30T14:09:01;1.90;;;1.80;;
67995;SDS011;54772;53.544;49.324;2023-07-30T14:11:49;2.30;;;2.10;;
67995;SDS011;54772;53.544;49.324;2023-07-30T14:14:36;2.50;;;2.12;;
67995;SDS011;54772;53.544;49.324;2023-07-30T14:20:09;3.67;;;2.42;;
67995;SDS011;54772;53.544;49.324;2023-07-30T14:22:56;2.30;;;2.10;;
67995;SDS011;54772;53.544;49.324;2023-07-30T14:25:45;2.72;;;2.42;;
67995;SDS011;54772;53.544;49.324;2023-07-30T14:31:18;3.30;;;2.57;;
67995;SDS011;54772;53.544;49.324;2023-07-30T14:34:06;3.40;;;2.20;;
67995;SDS011;54772;53.544;49.324;2023-07-30T14:36:52;2.40;;;2.20;;
67995;SDS011;54772;53.544;49.324;2023-07-30T14:39:39;2.87;;;2.30;;
67995;SDS011;54772;53.544;49.324;2023-07-30T14:42:26;4.72;;;2.42;;
67995;SDS011;54772;53.544;49.324;2023-07-30T14:45:13;3.25;;;2.40;;
67995;SDS011;54772;53.544;49.324;2023-07-30T14:47:59;4.05;;;2.22;;
67995;SDS011;54772;53.544;49.324;2023-07-30T14:50:46;2.58;;;2.37;;
67995;SDS011;54772;53.544;49.324;2023-07-30T14:53:33;3.65;;;2.30;;
67995;SDS011;54772;53.544;49.324;2023-07-30T14:56:16;3.42;;;2.83;;
67995;SDS011;54772;53.544;49.324;2023-07-30T14:59:04;4.37;;;2.95;;
67995;SDS011;54772;53.544;49.324;2023-07-30T15:01:51;3.37;;;2.60;;
67995;SDS011;54772;53.544;49.324;2023-07-30T15:04:37;5.72;;;2.70;;
67995;SDS011;54772;53.544;49.324;2023-07-30T15:07:24;5.12;;;2.97;;
67995;SDS011;54772;53.544;49.324;2023-07-30T15:10:11;4.40;;;2.92;;
67995;SDS011;54772;53.544;49.324;2023-07-30T15:12:58;5.18;;;2.55;;
67995;SDS011;54772;53.544;49.324;2023-07-30T15:15:44;3.80;;;2.90;;
67995;SDS011;54772;53.544;49.324;2023-07-30T15:21:18;3.75;;;2.70;;
67995;SDS011;54772;53.544;49.324;2023-07-30T15:26:51;4.68;;;2.65;;
67995;SDS011;54772;53.544;49.324;2023-07-30T15:29:37;7.03;;;3.10;;
67995;SDS011;54772;53.544;49.324;2023-07-30T15:32:24;3.45;;;2.60;;
67995;SDS011;54772;53.544;49.324;2023-07-30T15:35:11;3.62;;;2.72;;
67995;SDS011;54772;53.544;49.324;2023-07-30T15:37:58;3.45;;;2.50;;
67995;SDS011;54772;53.544;49.324;2023-07-30T15:40:45;3.65;;;2.80;;
67995;SDS011;54772;53.544;49.324;2023-07-30T15:43:31;4.20;;;2.60;;
67995;SDS011;54772;53.544;49.324;2023-07-30T15:46:18;5.10;;;3.20;;
67995;SDS011;54772;53.544;49.324;2023-07-30T15:49:05;3.78;;;2.87;;
67995;SDS011;54772;53.544;49.324;2023-07-30T15:54:38;4.17;;;3.00;;
67995;SDS011;54772;53.544;49.324;2023-07-30T15:57:24;4.40;;;3.22;;
67995;SDS011;54772;53.544;49.324;2023-07-30T16:00:12;4.43;;;3.17;;
67995;SDS011;54772;53.544;49.324;2023-07-30T16:03:06;4.80;;;3.08;;
67995;SDS011;54772;53.544;49.324;2023-07-30T16:05:52;5.05;;;2.80;;
67995;SDS011;54772;53.544;49.324;2023-07-30T16:08:39;4.70;;;3.20;;
67995;SDS011;54772;53.544;49.324;2023-07-30T16:14:12;3.07;;;2.40;;
67995;SDS011;54772;53.544;49.324;2023-07-30T16:16:59;3.90;;;2.70;;
67995;SDS011;54772;53.544;49.324;2023-07-30T16:19:46;3.50;;;2.62;;
67995;SDS011;54772;53.544;49.324;2023-07-30T16:22:32;3.37;;;2.37;;
67995;SDS011;54772;53.544;49.324;2023-07-30T16:28:05;3.65;;;2.40;;
67995;SDS011;54772;53.544;49.324;2023-07-30T16:30:52;2.85;;;2.33;;
67995;SDS011;54772;53.544;49.324;2023-07-30T16:36:25;3.90;;;2.53;;
67995;SDS011;54772;53.544;49.324;2023-07-30T16:39:14;5.10;;;2.42;;
67995;SDS011;54772;53.544;49.324;2023-07-30T16:42:01;3.47;;;2.67;;
67995;SDS011;54772;53.544;49.324;2023-07-30T16:47:34;3.42;;;2.53;;
67995;SDS011;54772;53.544;49.324;2023-07-30T16:50:21;3.35;;;2.58;;
67995;SDS011;54772;53.544;49.324;2023-07-30T16:53:07;3.62;;;2.37;;
67995;SDS011;54772;53.544;49.324;2023-07-30T16:55:54;3.47;;;2.65;;
67995;SDS011;54772;53.544;49.324;2023-07-30T16:58:41;4.60;;;2.80;;
67995;SDS011;54772;53.544;49.324;2023-07-30T17:01:28;3.58;;;2.62;;
67995;SDS011;54772;53.544;49.324;2023-07-30T17:04:15;4.35;;;2.55;;
67995;SDS011;54772;53.544;49.324;2023-07-30T17:07:01;3.05;;;2.67;;
67995;SDS011;54772;53.544;49.324;2023-07-30T17:09:48;2.58;;;2.37;;
67995;SDS011;54772;53.544;49.324;2023-07-30T17:12:35;3.05;;;2.58;;
67995;SDS011;54772;53.544;49.324;2023-07-30T17:15:21;3.00;;;2.22;;
67995;SDS011;54772;53.544;49.324;2023-07-30T17:18:08;2.35;;;2.10;;
67995;SDS011;54772;53.544;49.324;2023-07-30T17:20:56;2.35;;;2.00;;
67995;SDS011;54772;53.544;49.324;2023-07-30T17:23:43;3.40;;;2.50;;
67995;SDS011;54772;53.544;49.324;2023-07-30T17:29:16;2.78;;;2.45;;
67995;SDS011;54772;53.544;49.324;2023-07-30T17:32:03;2.97;;;2.10;;
67995;SDS011;54772;53.544;49.324;2023-07-30T17:34:50;3.33;;;2.42;;
67995;SDS011;54772;53.544;49.324;2023-07-30T17:37:37;2.67;;;2.22;;
67995;SDS011;54772;53.544;49.324;2023-07-30T17:43:10;4.07;;;3.00;;
67995;SDS011;54772;53.544;49.324;2023-07-30T17:46:01;3.22;;;2.80;;
67995;SDS011;54772;53.544;49.324;2023-07-30T17:48:49;3.80;;;2.80;;
67995;SDS011;54772;53.544;49.324;2023-07-30T17:51:36;3.42;;;2.50;;
67995;SDS011;54772;53.544;49.324;2023-07-30T17:54:22;3.67;;;2.55;;
67995;SDS011;54772;53.544;49.324;2023-07-30T17:57:09;5.00;;;2.70;;
67995;SDS011;54772;53.544;49.324;2023-07-30T17:59:56;3.42;;;2.60;;
67995;SDS011;54772;53.544;49.324;2023-07-30T18:02:42;3.80;;;2.90;;
67995;SDS011;54772;53.544;49.324;2023-07-30T18:05:30;4.45;;;2.80;;
67995;SDS011;54772;53.544;49.324;2023-07-30T18:08:16;3.85;;;2.40;;
67995;SDS011;54772;53.544;49.324;2023-07-30T18:11:03;3.08;;;2.50;;
67995;SDS011;54772;53.544;49.324;2023-07-30T18:13:50;4.30;;;2.70;;
67995;SDS011;54772;53.544;49.324;2023-07-30T18:16:37;3.75;;;2.70;;
67995;SDS011;54772;53.544;49.324;2023-07-30T18:19:26;3.87;;;3.00;;
67995;SDS011;54772;53.544;49.324;2023-07-30T18:22:13;3.05;;;2.58;;
67995;SDS011;54772;53.544;49.324;2023-07-30T18:24:59;2.40;;;2.20;;
67995;SDS011;54772;53.544;49.324;2023-07-30T18:27:46;2.70;;;2.28;;
67995;SDS011;54772;53.544;49.324;2023-07-30T18:33:19;3.10;;;2.40;;
67995;SDS011;54772;53.544;49.324;2023-07-30T18:36:06;2.50;;;2.15;;
67995;SDS011;54772;53.544;49.324;2023-07-30T18:38:53;3.25;;;2.33;;
67995;SDS011;54772;53.544;49.324;2023-07-30T18:41:39;3.72;;;2.62;;
67995;SDS011;54772;53.544;49.324;2023-07-30T18:44:27;3.20;;;2.30;;
67995;SDS011;54772;53.544;49.324;2023-07-30T18:47:14;3.20;;;2.42;;